| time (UTC) | temp C | wind direction | speed KPH | gust KPH | rain 1hr cm | rain 24hr cm | rain mn cm | humidity % | barometer mb |
| 20260503200553 | 17 | 283 | 22.5 | 27.4 | 0.00 | 0.00 | 0.00 | 31 | 1053.3 |
| 20260503200050 | 17 | 272 | 9.7 | 11.3 | 0.00 | 0.00 | 0.00 | 35 | 1053.5 |
| 20260503195547 | 17 | 232 | 9.7 | 16.1 | 0.00 | 0.00 | 0.00 | 32 | 1053.5 |
| 20260503195044 | 17 | 161 | 12.9 | 14.5 | 0.00 | 0.00 | 0.00 | 31 | 1053.7 |
| 20260503194541 | 18 | 284 | 6.4 | 12.9 | 0.00 | 0.00 | 0.00 | 36 | 1053.7 |
| 20260503194041 | 17 | 100 | 3.2 | 6.4 | 0.00 | 0.00 | 0.00 | 35 | 1053.8 |
| 20260503193538 | 17 | 227 | 1.6 | 6.4 | 0.00 | 0.00 | 0.00 | 39 | 1053.5 |
| 20260503193033 | 17 | 281 | 4.8 | 11.3 | 0.00 | 0.00 | 0.00 | 38 | 1053.8 |
| 20260503192529 | 18 | 243 | 3.2 | 9.7 | 0.00 | 0.00 | 0.00 | 35 | 1054.0 |
| 20260503192026 | 17 | 299 | 6.4 | 9.7 | 0.00 | 0.00 | 0.00 | 32 | 1054.0 |
| 20260503191522 | 17 | 174 | 3.2 | 4.8 | 0.00 | 0.00 | 0.00 | 37 | 1054.1 |
| 20260503191019 | 17 | 200 | 9.7 | 14.5 | 0.00 | 0.00 | 0.00 | 36 | 1053.9 |
| 20260503190516 | 17 | 239 | 1.6 | 6.4 | 0.00 | 0.00 | 0.00 | 33 | 1054.3 |
| 20260503190013 | 17 | 240 | 4.8 | 9.7 | 0.00 | 0.00 | 0.00 | 34 | 1054.3 |
| 20260503185509 | 16 | 159 | 8.0 | 11.3 | 0.00 | 0.00 | 0.00 | 35 | 1054.3 |
| 20260503185009 | 17 | 182 | 6.4 | 22.5 | 0.00 | 0.00 | 0.00 | 32 | 1054.5 |
| 20260503184506 | 17 | 252 | 8.0 | 16.1 | 0.00 | 0.00 | 0.00 | 35 | 1054.6 |
| 20260503184002 | 16 | 253 | 9.7 | 12.9 | 0.00 | 0.00 | 0.00 | 33 | 1054.6 |
| 20260503183459 | 17 | 249 | 3.2 | 12.9 | 0.00 | 0.00 | 0.00 | 35 | 1054.7 |
| 20260503182955 | 17 | 259 | 3.2 | 14.5 | 0.00 | 0.00 | 0.00 | 33 | 1054.7 |
| 20260503182455 | 17 | 199 | 9.7 | 16.1 | 0.00 | 0.00 | 0.00 | 37 | 1054.9 |
| 20260503181952 | 17 | 235 | 3.2 | 9.7 | 0.00 | 0.00 | 0.00 | 42 | 1054.6 |
| 20260503181449 | 16 | 184 | 4.8 | 12.9 | 0.00 | 0.00 | 0.00 | 38 | 1054.8 |
| 20260503180945 | 16 | 170 | 8.0 | 12.9 | 0.00 | 0.00 | 0.00 | 37 | 1054.8 |
| 20260503180443 | 17 | 146 | 0.0 | 6.4 | 0.00 | 0.00 | 0.00 | 37 | 1055.1 |
| 20260503175939 | 16 | 295 | 1.6 | 24.1 | 0.00 | 0.00 | 0.00 | 39 | 1055.2 |
| 20260503175438 | 16 | 167 | 4.8 | 4.8 | 0.00 | 0.00 | 0.00 | 35 | 1055.1 |
| 20260503174933 | 16 | 249 | 9.7 | 12.9 | 0.00 | 0.00 | 0.00 | 31 | 1055.2 |
| 20260503174432 | 16 | 237 | 6.4 | 12.9 | 0.00 | 0.00 | 0.00 | 33 | 1055.3 |
| 20260503173931 | 16 | 177 | 6.4 | 14.5 | 0.00 | 0.00 | 0.00 | 35 | 1055.3 |
| 20260503173428 | 15 | 170 | 0.0 | 9.7 | 0.00 | 0.00 | 0.00 | 36 | 1055.5 |
| 20260503172925 | 17 | 165 | 6.4 | 11.3 | 0.00 | 0.00 | 0.00 | 33 | 1055.6 |
| 20260503172422 | 16 | 265 | 1.6 | 11.3 | 0.00 | 0.00 | 0.00 | 38 | 1055.9 |
| 20260503171918 | 16 | 300 | 9.7 | 16.1 | 0.00 | 0.00 | 0.00 | 31 | 1055.7 |
| 20260503171415 | 17 | 270 | 3.2 | 9.7 | 0.00 | 0.00 | 0.00 | 32 | 1055.9 |
| 20260503170913 | 16 | 285 | 4.8 | 9.7 | 0.00 | 0.00 | 0.00 | 34 | 1056.1 |
| 20260503170409 | 16 | 225 | 0.0 | 3.2 | 0.00 | 0.00 | 0.00 | 37 | 1056.0 |
| 20260503150801 | 15 | 168 | 3.2 | 9.7 | 0.00 | 0.00 | 0.00 | 37 | 1057.1 |
| 20260503150257 | 15 | 161 | 6.4 | 9.7 | 0.00 | 0.00 | 0.00 | 35 | 1057.2 |
| 20260503140222 | 13 | 128 | 3.2 | 9.7 | 0.00 | 0.00 | 0.00 | 50 | 1057.3 |
| 20260503131151 | 8 | 159 | 4.8 | 4.8 | 0.00 | 0.00 | 0.00 | 71 | 1056.8 |
| 20260503130648 | 8 | 153 | 4.8 | 4.8 | 0.00 | 0.00 | 0.00 | 75 | 1056.9 |
| 20260503130146 | 7 | 133 | 4.8 | 4.8 | 0.00 | 0.00 | 0.00 | 76 | 1056.9 |
| 20260503120111 | 3 | 325 | 0.0 | 0.0 | 0.00 | 0.00 | 0.00 | 97 | 1056.9 |
| 20260503110539 | -1 | 325 | 0.0 | 0.0 | 0.00 | 0.00 | 0.00 | 96 | 1056.3 |
| 20260503090426 | 0 | 325 | 0.0 | 0.0 | 0.00 | 0.00 | 0.00 | 95 | 1055.8 |
| 20260503081352 | 0 | 325 | 0.0 | 0.0 | 0.00 | 0.00 | 0.00 | 94 | 1055.3 |
| 20260503080849 | 0 | 325 | 0.0 | 0.0 | 0.00 | 0.00 | 0.00 | 94 | 1055.5 |
| 20260503080346 | 0 | 325 | 0.0 | 0.0 | 0.00 | 0.00 | 0.00 | 94 | 1055.4 |
| 20260503072823 | 1 | 325 | 0.0 | 0.0 | 0.00 | 0.00 | 0.00 | 92 | 1055.1 |
| 20260503072319 | 0 | 325 | 0.0 | 0.0 | 0.00 | 0.00 | 0.00 | 92 | 1055.2 |
| 20260503071815 | 0 | 325 | 0.0 | 0.0 | 0.00 | 0.00 | 0.00 | 92 | 1055.1 |
| 20260503071313 | 1 | 325 | 0.0 | 0.0 | 0.00 | 0.00 | 0.00 | 92 | 1055.3 |
| 20260503070809 | 1 | 325 | 0.0 | 0.0 | 0.00 | 0.00 | 0.00 | 92 | 1055.0 |
| 20260503070307 | 1 | 325 | 0.0 | 0.0 | 0.00 | 0.00 | 0.00 | 91 | 1055.2 |
| 20260503060238 | 2 | 325 | 0.0 | 0.0 | 0.00 | 0.00 | 0.00 | 85 | 1055.3 |
| 20260503054725 | 2 | 325 | 0.0 | 0.0 | 0.00 | 0.00 | 0.00 | 85 | 1055.3 |
| 20260503054222 | 2 | 325 | 0.0 | 0.0 | 0.00 | 0.00 | 0.00 | 83 | 1055.3 |
| 20260503053720 | 2 | 325 | 0.0 | 0.0 | 0.00 | 0.00 | 0.00 | 82 | 1055.3 |
| 20260503053219 | 2 | 325 | 0.0 | 0.0 | 0.00 | 0.00 | 0.00 | 81 | 1055.3 |
| 20260503052714 | 3 | 325 | 0.0 | 0.0 | 0.00 | 0.00 | 0.00 | 79 | 1055.3 |
| 20260503052211 | 3 | 325 | 0.0 | 0.0 | 0.00 | 0.00 | 0.00 | 77 | 1055.2 |
| 20260503051706 | 3 | 325 | 0.0 | 0.0 | 0.00 | 0.00 | 0.00 | 77 | 1055.3 |
| 20260503051204 | 3 | 325 | 0.0 | 0.0 | 0.00 | 0.00 | 0.00 | 76 | 1055.4 |
| 20260503050701 | 4 | 325 | 0.0 | 0.0 | 0.00 | 0.00 | 0.00 | 74 | 1055.6 |
| 20260503050157 | 4 | 325 | 0.0 | 0.0 | 0.00 | 0.00 | 0.00 | 75 | 1055.4 |
| 20260503045655 | 4 | 325 | 0.0 | 0.0 | 0.00 | 0.00 | 0.00 | 76 | 1055.3 |
| 20260503045152 | 3 | 325 | 0.0 | 0.0 | 0.00 | 0.00 | 0.00 | 76 | 1055.1 |
| 20260503044648 | 3 | 325 | 0.0 | 0.0 | 0.00 | 0.00 | 0.00 | 76 | 1055.3 |
| 20260503044146 | 4 | 325 | 0.0 | 0.0 | 0.00 | 0.00 | 0.00 | 76 | 1055.3 |
| 20260503043643 | 4 | 325 | 0.0 | 0.0 | 0.00 | 0.00 | 0.00 | 76 | 1055.4 |
| 20260503043140 | 4 | 325 | 0.0 | 0.0 | 0.00 | 0.00 | 0.00 | 76 | 1055.4 |
| 20260503042636 | 4 | 325 | 0.0 | 0.0 | 0.00 | 0.00 | 0.00 | 75 | 1055.3 |
| 20260503042132 | 4 | 325 | 0.0 | 0.0 | 0.00 | 0.00 | 0.00 | 76 | 1055.2 |
| 20260503041629 | 4 | 325 | 0.0 | 0.0 | 0.00 | 0.00 | 0.00 | 76 | 1055.1 |
| 20260503041127 | 4 | 325 | 0.0 | 0.0 | 0.00 | 0.00 | 0.00 | 77 | 1055.1 |
| 20260503040624 | 4 | 325 | 0.0 | 0.0 | 0.00 | 0.00 | 0.00 | 78 | 1055.1 |
| 20260503040121 | 4 | 325 | 0.0 | 0.0 | 0.00 | 0.00 | 0.00 | 78 | 1055.2 |
| 20260503035617 | 5 | 325 | 0.0 | 0.0 | 0.00 | 0.00 | 0.00 | 78 | 1055.0 |
| 20260503035115 | 5 | 325 | 0.0 | 0.0 | 0.00 | 0.00 | 0.00 | 78 | 1055.1 |
| 20260503034612 | 5 | 325 | 0.0 | 0.0 | 0.00 | 0.00 | 0.00 | 78 | 1055.0 |
| 20260503034110 | 5 | 325 | 0.0 | 0.0 | 0.00 | 0.00 | 0.00 | 78 | 1054.8 |
| 20260503033607 | 5 | 325 | 0.0 | 0.0 | 0.00 | 0.00 | 0.00 | 80 | 1054.9 |
| 20260503033104 | 5 | 325 | 0.0 | 0.0 | 0.00 | 0.00 | 0.00 | 81 | 1054.9 |
| 20260503032603 | 5 | 325 | 0.0 | 0.0 | 0.00 | 0.00 | 0.00 | 81 | 1054.8 |
| 20260503032101 | 5 | 325 | 0.0 | 0.0 | 0.00 | 0.00 | 0.00 | 82 | 1055.0 |
| 20260503031558 | 5 | 325 | 0.0 | 0.0 | 0.00 | 0.00 | 0.00 | 84 | 1054.9 |
| 20260503031055 | 5 | 325 | 0.0 | 0.0 | 0.00 | 0.00 | 0.00 | 83 | 1055.0 |
| 20260503030551 | 5 | 325 | 0.0 | 0.0 | 0.00 | 0.00 | 0.00 | 84 | 1054.9 |
| 20260503030048 | 5 | 325 | 0.0 | 0.0 | 0.00 | 0.00 | 0.00 | 83 | 1054.8 |
| 20260503025545 | 5 | 325 | 0.0 | 0.0 | 0.00 | 0.00 | 0.00 | 83 | 1054.9 |
| 20260503025043 | 5 | 325 | 0.0 | 0.0 | 0.00 | 0.00 | 0.00 | 84 | 1054.7 |
| 20260503024538 | 5 | 325 | 0.0 | 0.0 | 0.00 | 0.00 | 0.00 | 85 | 1054.7 |
| 20260503024036 | 5 | 325 | 0.0 | 0.0 | 0.00 | 0.00 | 0.00 | 84 | 1054.6 |
| 20260503023533 | 5 | 325 | 0.0 | 0.0 | 0.00 | 0.00 | 0.00 | 83 | 1054.5 |
| 20260503023030 | 5 | 325 | 0.0 | 0.0 | 0.00 | 0.00 | 0.00 | 79 | 1054.6 |
| 20260503022526 | 5 | 325 | 0.0 | 0.0 | 0.00 | 0.00 | 0.00 | 76 | 1054.5 |
| 20260503022021 | 5 | 325 | 0.0 | 0.0 | 0.00 | 0.00 | 0.00 | 74 | 1054.5 |
| 20260503021518 | 5 | 325 | 0.0 | 0.0 | 0.00 | 0.00 | 0.00 | 74 | 1054.4 |
| 20260503021015 | 5 | 325 | 0.0 | 0.0 | 0.00 | 0.00 | 0.00 | 75 | 1054.3 |
| 20260503020512 | 5 | 325 | 0.0 | 0.0 | 0.00 | 0.00 | 0.00 | 74 | 1054.1 |
| 20260503020009 | 5 | 325 | 0.0 | 0.0 | 0.00 | 0.00 | 0.00 | 75 | 1054.1 |
| 20260503015505 | 5 | 325 | 0.0 | 0.0 | 0.00 | 0.00 | 0.00 | 73 | 1054.0 |
| 20260503015002 | 6 | 325 | 0.0 | 0.0 | 0.00 | 0.00 | 0.00 | 72 | 1053.9 |
| 20260503014458 | 6 | 325 | 0.0 | 0.0 | 0.00 | 0.00 | 0.00 | 69 | 1053.9 |
| 20260503013957 | 6 | 325 | 0.0 | 0.0 | 0.00 | 0.00 | 0.00 | 68 | 1053.9 |
| 20260503013453 | 6 | 325 | 0.0 | 0.0 | 0.00 | 0.00 | 0.00 | 68 | 1053.9 |
| 20260503012950 | 7 | 325 | 0.0 | 0.0 | 0.00 | 0.00 | 0.00 | 66 | 1053.8 |
| 20260503012449 | 7 | 325 | 0.0 | 0.0 | 0.00 | 0.00 | 0.00 | 65 | 1053.8 |
| 20260503011944 | 8 | 325 | 0.0 | 0.0 | 0.00 | 0.00 | 0.00 | 64 | 1053.5 |
| 20260503011441 | 8 | 325 | 0.0 | 0.0 | 0.00 | 0.00 | 0.00 | 62 | 1053.7 |
| 20260503010939 | 8 | 325 | 0.0 | 1.6 | 0.00 | 0.00 | 0.00 | 61 | 1053.5 |
| 20260503010435 | 8 | 325 | 0.0 | 0.0 | 0.00 | 0.00 | 0.00 | 61 | 1053.4 |
| 20260503005932 | 9 | 325 | 1.6 | 1.6 | 0.00 | 0.00 | 0.00 | 59 | 1053.5 |
| 20260503005430 | 9 | 325 | 0.0 | 3.2 | 0.00 | 0.00 | 0.00 | 58 | 1053.3 |
| 20260503004926 | 9 | 325 | 1.6 | 1.6 | 0.00 | 0.00 | 0.00 | 59 | 1053.3 |
| 20260503004423 | 9 | 325 | 3.2 | 3.2 | 0.00 | 0.00 | 0.00 | 57 | 1053.3 |
| 20260503003921 | 9 | 327 | 3.2 | 4.8 | 0.00 | 0.00 | 0.00 | 58 | 1053.3 |
| 20260503003417 | 9 | 327 | 3.2 | 3.2 | 0.00 | 0.00 | 0.00 | 58 | 1053.2 |
| 20260503002915 | 9 | 327 | 1.6 | 4.8 | 0.00 | 0.00 | 0.00 | 59 | 1053.3 |
| 20260503002412 | 9 | 327 | 4.8 | 4.8 | 0.00 | 0.00 | 0.00 | 59 | 1053.2 |
| 20260503001908 | 9 | 328 | 4.8 | 4.8 | 0.00 | 0.00 | 0.00 | 57 | 1053.1 |
| 20260503001404 | 10 | 331 | 3.2 | 3.2 | 0.00 | 0.00 | 0.00 | 57 | 1052.8 |
| 20260503000902 | 10 | 331 | 0.0 | 1.6 | 0.00 | 0.00 | 0.00 | 56 | 1052.8 |
| 20260503000400 | 11 | 354 | 0.0 | 3.2 | 0.00 | 0.00 | 0.00 | 53 | 1052.8 |
| 20260502235856 | 11 | 312 | 3.2 | 3.2 | 0.00 | 0.00 | 0.00 | 54 | 1052.8 |
| 20260502235353 | 11 | 310 | 0.0 | 0.0 | 0.00 | 0.00 | 0.00 | 59 | 1052.6 |
| 20260502234850 | 10 | 310 | 0.0 | 0.0 | 0.00 | 0.00 | 0.00 | 61 | 1052.8 |
| 20260502234347 | 10 | 310 | 0.0 | 3.2 | 0.00 | 0.00 | 0.00 | 57 | 1053.0 |
| 20260502233844 | 11 | 310 | 0.0 | 3.2 | 0.00 | 0.00 | 0.00 | 56 | 1052.7 |
| 20260502233340 | 11 | 310 | 0.0 | 4.8 | 0.00 | 0.00 | 0.00 | 56 | 1052.5 |
| 20260502232837 | 11 | 310 | 1.6 | 1.6 | 0.00 | 0.00 | 0.00 | 54 | 1052.9 |
| 20260502232333 | 12 | 311 | 3.2 | 3.2 | 0.00 | 0.00 | 0.00 | 48 | 1052.5 |
| 20260502231830 | 12 | 288 | 1.6 | 3.2 | 0.00 | 0.00 | 0.00 | 51 | 1052.5 |
| 20260502231328 | 12 | 288 | 6.4 | 9.7 | 0.00 | 0.00 | 0.00 | 47 | 1052.7 |
| 20260502230826 | 12 | 292 | 6.4 | 9.7 | 0.00 | 0.00 | 0.00 | 49 | 1052.6 |
| 20260502230324 | 12 | 312 | 3.2 | 9.7 | 0.00 | 0.00 | 0.00 | 51 | 1052.6 |
| 20260502225820 | 12 | 272 | 9.7 | 16.1 | 0.00 | 0.00 | 0.00 | 50 | 1052.8 |
| 20260502225317 | 12 | 297 | 3.2 | 4.8 | 0.00 | 0.00 | 0.00 | 56 | 1052.6 |
| 20260502224814 | 12 | 298 | 4.8 | 14.5 | 0.00 | 0.00 | 0.00 | 50 | 1052.6 |
| 20260502224309 | 13 | 288 | 3.2 | 6.4 | 0.00 | 0.00 | 0.00 | 48 | 1052.7 |
| 20260502223808 | 13 | 278 | 4.8 | 9.7 | 0.00 | 0.00 | 0.00 | 52 | 1052.8 |
| 20260502223306 | 12 | 268 | 4.8 | 9.7 | 0.00 | 0.00 | 0.00 | 53 | 1052.9 |
| 20260502222803 | 12 | 291 | 1.6 | 4.8 | 0.00 | 0.00 | 0.00 | 55 | 1052.8 |
| 20260502222300 | 11 | 293 | 8.0 | 11.3 | 0.00 | 0.00 | 0.00 | 53 | 1052.8 |
| 20260502221755 | 11 | 274 | 4.8 | 9.7 | 0.00 | 0.00 | 0.00 | 56 | 1052.7 |
| 20260502221252 | 11 | 276 | 3.2 | 9.7 | 0.00 | 0.00 | 0.00 | 55 | 1052.7 |
| 20260502220749 | 11 | 293 | 4.8 | 4.8 | 0.00 | 0.00 | 0.00 | 52 | 1052.7 |
| 20260502220245 | 11 | 282 | 4.8 | 9.7 | 0.00 | 0.00 | 0.00 | 56 | 1052.7 |
| 20260502215741 | 11 | 289 | 9.7 | 14.5 | 0.00 | 0.00 | 0.00 | 52 | 1052.9 |
| 20260502215239 | 11 | 295 | 8.0 | 9.7 | 0.00 | 0.00 | 0.00 | 51 | 1052.7 |
| 20260502214736 | 11 | 293 | 3.2 | 6.4 | 0.00 | 0.00 | 0.00 | 54 | 1052.7 |
| 20260502214234 | 12 | 294 | 9.7 | 11.3 | 0.00 | 0.00 | 0.00 | 53 | 1053.0 |
| 20260502213730 | 12 | 285 | 3.2 | 6.4 | 0.00 | 0.00 | 0.00 | 55 | 1052.8 |
| 20260502213227 | 12 | 293 | 0.0 | 0.0 | 0.00 | 0.00 | 0.00 | 60 | 1052.5 |
| 20260502212726 | 11 | 292 | 3.2 | 4.8 | 0.00 | 0.00 | 0.00 | 54 | 1052.7 |
| 20260502212224 | 11 | 291 | 4.8 | 4.8 | 0.00 | 0.00 | 0.00 | 57 | 1052.6 |
| 20260502211720 | 11 | 306 | 3.2 | 4.8 | 0.00 | 0.00 | 0.00 | 55 | 1052.5 |
| 20260502211217 | 11 | 303 | 4.8 | 4.8 | 0.00 | 0.00 | 0.00 | 55 | 1053.0 |
| 20260502210714 | 11 | 299 | 1.6 | 4.8 | 0.00 | 0.00 | 0.00 | 58 | 1052.9 |
| 20260502210211 | 11 | 296 | 4.8 | 6.4 | 0.00 | 0.00 | 0.00 | 57 | 1052.7 |
| 20260502205708 | 12 | 319 | 3.2 | 6.4 | 0.00 | 0.00 | 0.00 | 54 | 1052.6 |
| 20260502205204 | 12 | 292 | 3.2 | 9.7 | 0.00 | 0.00 | 0.00 | 52 | 1052.6 |
| 20260502204701 | 13 | 296 | 4.8 | 4.8 | 0.00 | 0.00 | 0.00 | 53 | 1052.8 |
| 20260502204159 | 12 | 299 | 4.8 | 9.7 | 0.00 | 0.00 | 0.00 | 52 | 1052.8 |
| 20260502203656 | 12 | 295 | 4.8 | 4.8 | 0.00 | 0.00 | 0.00 | 54 | 1052.9 |
| 20260502203154 | 12 | 321 | 4.8 | 9.7 | 0.00 | 0.00 | 0.00 | 53 | 1052.9 |
| 20260502202648 | 12 | 290 | 11.3 | 14.5 | 0.00 | 0.00 | 0.00 | 50 | 1052.7 |
| 20260502202147 | 12 | 298 | 4.8 | 9.7 | 0.00 | 0.00 | 0.00 | 50 | 1052.7 |
| 20260502201643 | 12 | 293 | 8.0 | 14.5 | 0.00 | 0.00 | 0.00 | 56 | 1052.9 |
| 20260502201140 | 12 | 306 | 4.8 | 11.3 | 0.00 | 0.00 | 0.00 | 54 | 1052.8 |
| 20260502200636 | 12 | 287 | 0.0 | 3.2 | 0.00 | 0.00 | 0.00 | 54 | 1053.1 |